createdAt,value
2023-05-11T00:00:36.573Z,10.21
2023-05-11T00:03:03.170Z,10.17
2023-05-11T00:05:29.710Z,10.17
2023-05-11T00:07:56.198Z,10.20
2023-05-11T00:10:23.266Z,10.12
2023-05-11T00:12:49.735Z,10.13
2023-05-11T00:15:16.316Z,10.13
2023-05-11T00:17:42.851Z,10.15
2023-05-11T00:20:09.816Z,10.11
2023-05-11T00:22:36.329Z,10.17
2023-05-11T00:25:03.057Z,10.17
2023-05-11T00:27:29.614Z,10.22
2023-05-11T00:29:56.197Z,10.16
2023-05-11T00:32:22.818Z,10.18
2023-05-11T00:34:49.323Z,10.13
2023-05-11T00:37:16.069Z,10.09
2023-05-11T00:39:42.641Z,10.07
2023-05-11T00:42:10.745Z,10.09
2023-05-11T00:44:37.234Z,10.08
2023-05-11T00:47:03.920Z,9.99
2023-05-11T00:49:31.298Z,9.92
2023-05-11T00:51:57.894Z,9.90
2023-05-11T00:54:24.878Z,9.88
2023-05-11T00:56:51.786Z,9.85
2023-05-11T00:59:18.803Z,9.79
2023-05-11T01:01:45.642Z,9.77
2023-05-11T01:04:12.312Z,9.72
2023-05-11T01:06:54.190Z,9.69
2023-05-11T01:09:29.416Z,9.74
2023-05-11T01:12:38.488Z,9.66
2023-05-11T01:15:06.847Z,9.65
2023-05-11T01:17:47.962Z,9.68
2023-05-11T01:20:23.933Z,9.58
2023-05-11T01:23:08.492Z,9.57
2023-05-11T01:26:05.214Z,9.56
2023-05-11T01:29:00.777Z,9.55
2023-05-11T01:31:30.642Z,9.52
2023-05-11T01:34:04.281Z,9.49
2023-05-11T01:36:35.236Z,9.47
2023-05-11T01:39:05.179Z,9.42
2023-05-11T01:41:34.004Z,9.50
2023-05-11T01:44:04.065Z,9.52
2023-05-11T01:46:33.180Z,9.52
2023-05-11T01:49:01.799Z,9.48
2023-05-11T01:51:31.756Z,9.46
2023-05-11T01:53:59.729Z,9.43
2023-05-11T01:56:27.910Z,9.45
2023-05-11T01:58:55.647Z,9.40
2023-05-11T02:01:22.339Z,9.41
2023-05-11T02:03:50.102Z,9.40
2023-05-11T02:06:18.058Z,9.32
2023-05-11T02:08:45.826Z,9.36
2023-05-11T02:11:13.553Z,9.29
2023-05-11T02:13:42.012Z,9.28
2023-05-11T02:16:09.391Z,9.32
2023-05-11T02:18:39.004Z,9.34
2023-05-11T02:21:05.590Z,9.31
2023-05-11T02:23:33.089Z,9.27
2023-05-11T02:25:59.950Z,9.30
2023-05-11T02:28:26.726Z,9.31
2023-05-11T02:30:56.785Z,9.25
2023-05-11T02:33:31.420Z,9.20
2023-05-11T02:35:58.423Z,9.20
2023-05-11T02:38:33.281Z,9.20
2023-05-11T02:41:02.615Z,9.20
2023-05-11T02:43:32.472Z,9.11
2023-05-11T02:46:02.425Z,9.14
2023-05-11T02:48:31.557Z,9.09
2023-05-11T02:50:58.510Z,9.12
2023-05-11T02:53:27.195Z,9.15
2023-05-11T02:55:55.236Z,9.14
2023-05-11T02:58:22.473Z,9.09
2023-05-11T03:00:49.217Z,9.12
2023-05-11T03:03:16.106Z,9.16
2023-05-11T03:05:42.690Z,9.13
2023-05-11T03:08:09.257Z,9.17
2023-05-11T03:10:36.279Z,9.24
2023-05-11T03:13:03.899Z,9.18
2023-05-11T03:15:30.471Z,9.18
2023-05-11T03:17:57.490Z,9.13
2023-05-11T03:20:24.187Z,9.06
2023-05-11T03:22:51.291Z,9.08
2023-05-11T03:25:18.386Z,9.03
2023-05-11T03:27:46.106Z,8.98
2023-05-11T03:30:14.220Z,8.98
2023-05-11T03:32:40.787Z,8.89
2023-05-11T03:35:08.225Z,8.87
2023-05-11T03:37:37.197Z,8.88
2023-05-11T03:40:04.432Z,8.87
2023-05-11T03:42:33.126Z,8.90
2023-05-11T03:45:00.443Z,8.88
2023-05-11T03:47:30.205Z,8.89
2023-05-11T03:49:57.173Z,8.89
2023-05-11T03:52:24.395Z,8.88
2023-05-11T03:54:50.943Z,8.92
2023-05-11T03:57:17.408Z,8.93
2023-05-11T03:59:43.961Z,8.96
2023-05-11T04:02:10.624Z,8.96
2023-05-11T04:04:37.227Z,8.96
2023-05-11T04:07:03.804Z,8.99
2023-05-11T04:09:30.298Z,9.01
2023-05-11T04:11:56.771Z,9.08
2023-05-11T04:14:23.315Z,9.08
2023-05-11T04:16:49.814Z,9.19
2023-05-11T04:19:16.721Z,9.25
2023-05-11T04:21:43.188Z,9.33
2023-05-11T04:24:09.680Z,9.31
2023-05-11T04:26:36.156Z,9.49
2023-05-11T04:29:02.733Z,9.61
2023-05-11T04:31:30.410Z,9.63
2023-05-11T04:33:57.091Z,9.62
2023-05-11T04:36:23.895Z,9.60
2023-05-11T04:38:50.414Z,9.66
2023-05-11T04:41:16.898Z,9.70
2023-05-11T04:43:43.328Z,9.77
2023-05-11T04:46:09.954Z,9.86
2023-05-11T04:48:36.691Z,9.88
2023-05-11T04:51:06.358Z,10.02
2023-05-11T04:53:33.240Z,9.93
2023-05-11T04:55:59.707Z,10.01
2023-05-11T04:58:26.207Z,10.17
2023-05-11T05:00:52.747Z,10.20
2023-05-11T05:03:19.347Z,10.21
2023-05-11T05:05:45.808Z,10.10
2023-05-11T05:08:12.287Z,10.26
2023-05-11T05:10:38.793Z,10.35
2023-05-11T05:13:05.294Z,10.45
2023-05-11T05:15:31.748Z,10.55
2023-05-11T05:17:58.300Z,10.60
2023-05-11T05:20:24.927Z,10.69
2023-05-11T05:22:51.910Z,10.86
2023-05-11T05:25:18.506Z,10.99
2023-05-11T05:27:45.360Z,10.94
2023-05-11T05:30:12.062Z,11.02
2023-05-11T05:32:38.615Z,11.22
2023-05-11T05:35:05.604Z,11.32
2023-05-11T05:37:32.316Z,11.40
2023-05-11T05:39:58.804Z,11.74
2023-05-11T05:42:25.391Z,11.86
2023-05-11T05:44:52.317Z,12.28
2023-05-11T05:47:18.856Z,13.23
2023-05-11T05:49:45.480Z,13.74
2023-05-11T05:52:12.071Z,14.19
2023-05-11T05:54:38.705Z,15.32
2023-05-11T05:57:06.529Z,16.52
2023-05-11T05:59:32.985Z,17.64
2023-05-11T06:01:59.489Z,17.41
2023-05-11T06:04:26.045Z,18.26
2023-05-11T06:06:52.615Z,18.12
2023-05-11T06:09:19.205Z,18.79
2023-05-11T06:11:45.795Z,18.85
2023-05-11T06:14:12.306Z,18.92
2023-05-11T06:16:38.869Z,19.02
2023-05-11T06:19:05.814Z,18.39
2023-05-11T06:21:32.519Z,19.37
2023-05-11T06:23:59.014Z,19.80
2023-05-11T06:26:25.760Z,20.45
2023-05-11T06:28:52.706Z,21.04
2023-05-11T06:31:19.446Z,20.87
2023-05-11T06:33:45.930Z,19.71
2023-05-11T06:36:12.412Z,20.66
2023-05-11T06:38:38.896Z,21.23
2023-05-11T06:41:06.265Z,21.61
2023-05-11T06:43:33.405Z,21.17
2023-05-11T06:45:59.984Z,21.16
2023-05-11T06:48:29.645Z,21.32
2023-05-11T06:50:56.630Z,20.61
2023-05-11T06:53:23.183Z,20.96
2023-05-11T06:55:49.681Z,21.20
2023-05-11T06:58:17.023Z,22.10
2023-05-11T07:00:43.550Z,22.26
2023-05-11T07:03:10.117Z,21.60
2023-05-11T07:05:37.765Z,21.06
2023-05-11T07:08:04.940Z,21.27
2023-05-11T07:10:31.928Z,21.12
2023-05-11T07:12:58.434Z,21.44
2023-05-11T07:15:24.893Z,21.17
2023-05-11T07:17:52.720Z,21.57
2023-05-11T07:20:19.902Z,22.58
2023-05-11T07:22:46.603Z,22.62
2023-05-11T07:25:13.256Z,23.55
2023-05-11T07:27:39.765Z,24.20
2023-05-11T07:30:07.112Z,23.36
2023-05-11T07:32:33.951Z,24.44
2023-05-11T07:35:00.520Z,23.41
2023-05-11T07:37:27.016Z,21.49
2023-05-11T07:39:54.260Z,20.10
2023-05-11T07:42:20.840Z,19.75
2023-05-11T07:44:47.328Z,19.86
2023-05-11T07:47:13.791Z,20.43
2023-05-11T07:49:44.021Z,19.42
2023-05-11T07:52:11.623Z,19.33
2023-05-11T07:54:38.843Z,19.31
2023-05-11T07:57:05.689Z,19.15
2023-05-11T07:59:32.483Z,19.25
2023-05-11T08:01:59.568Z,18.77
2023-05-11T08:04:27.621Z,19.06
2023-05-11T08:06:54.156Z,18.25
2023-05-11T08:09:20.916Z,18.61
2023-05-11T08:11:47.644Z,18.63
2023-05-11T08:14:14.362Z,18.58
2023-05-11T08:16:41.118Z,19.09
2023-05-11T08:19:07.928Z,18.68
2023-05-11T08:21:36.511Z,17.74
2023-05-11T08:24:03.250Z,17.66
2023-05-11T08:26:29.738Z,18.12
2023-05-11T08:28:56.246Z,17.50
2023-05-11T08:31:22.976Z,17.85
2023-05-11T08:33:49.990Z,18.06
2023-05-11T08:36:16.671Z,17.84
2023-05-11T08:38:43.611Z,18.32
2023-05-11T08:41:12.273Z,18.32
2023-05-11T08:43:39.844Z,18.26
2023-05-11T08:46:07.798Z,18.28
2023-05-11T08:48:34.881Z,17.80
2023-05-11T08:51:03.584Z,18.53
2023-05-11T08:53:30.615Z,18.75
2023-05-11T08:56:01.369Z,18.79
2023-05-11T08:58:28.397Z,18.82
2023-05-11T09:00:55.327Z,18.58
2023-05-11T09:03:22.389Z,18.04
2023-05-11T09:05:49.477Z,17.72
2023-05-11T09:08:18.363Z,17.72
2023-05-11T09:10:45.125Z,18.16
2023-05-11T09:13:12.165Z,18.20
2023-05-11T09:15:38.750Z,18.19
2023-05-11T09:18:05.709Z,17.95
2023-05-11T09:20:33.686Z,17.76
2023-05-11T09:23:00.824Z,17.78
2023-05-11T09:25:30.625Z,17.55
2023-05-11T09:27:57.949Z,17.59
2023-05-11T09:30:24.515Z,17.70
2023-05-11T09:32:51.957Z,17.91
2023-05-11T09:35:28.755Z,17.74
2023-05-11T09:38:05.582Z,17.89
2023-05-11T09:40:36.542Z,17.41
2023-05-11T09:43:04.444Z,17.38
2023-05-11T09:45:38.229Z,17.27
2023-05-11T09:48:06.603Z,16.97
2023-05-11T09:50:34.397Z,16.86
2023-05-11T09:53:01.134Z,17.24
2023-05-11T09:55:27.857Z,17.43
2023-05-11T09:57:57.145Z,17.58
2023-05-11T10:00:25.335Z,17.67
2023-05-11T10:03:06.015Z,17.77
2023-05-11T10:05:34.691Z,17.79
2023-05-11T10:08:03.982Z,17.56
2023-05-11T10:10:32.962Z,17.60
2023-05-11T10:13:01.208Z,17.78
2023-05-11T10:15:28.750Z,17.59
2023-05-11T10:17:56.608Z,17.86
2023-05-11T10:20:23.278Z,18.01
2023-05-11T10:22:53.772Z,18.03
2023-05-11T10:25:23.431Z,18.30
2023-05-11T10:27:51.306Z,17.84
2023-05-11T10:30:18.958Z,18.04
2023-05-11T10:32:47.196Z,17.99
2023-05-11T10:35:14.022Z,18.24
2023-05-11T10:37:42.146Z,18.20
2023-05-11T10:40:09.599Z,18.05
2023-05-11T10:43:11.641Z,17.99
2023-05-11T10:46:08.965Z,18.21
2023-05-11T10:49:15.030Z,17.88
2023-05-11T10:51:52.025Z,18.18
2023-05-11T10:54:34.280Z,18.10
2023-05-11T10:57:08.808Z,17.96
2023-05-11T10:59:42.030Z,18.01
2023-05-11T11:02:09.032Z,17.99
2023-05-11T11:04:49.864Z,17.84
2023-05-11T11:07:18.465Z,17.95
2023-05-11T11:09:56.446Z,17.86
2023-05-11T11:12:26.846Z,18.16
2023-05-11T11:15:08.022Z,17.99
2023-05-11T11:17:35.867Z,18.10
2023-05-11T11:20:04.631Z,18.33
2023-05-11T11:22:38.591Z,18.45
2023-05-11T11:25:12.345Z,18.25
2023-05-11T11:27:41.733Z,18.60
2023-05-11T11:30:28.994Z,18.57
2023-05-11T11:33:16.010Z,18.56
2023-05-11T11:35:42.963Z,18.49
2023-05-11T11:38:11.359Z,18.62
2023-05-11T11:40:49.468Z,18.56
2023-05-11T11:43:25.933Z,18.61
2023-05-11T11:45:56.856Z,18.70
2023-05-11T11:48:36.357Z,18.72
2023-05-11T11:51:11.229Z,18.65
2023-05-11T11:53:38.177Z,18.79
2023-05-11T11:56:06.117Z,18.68
2023-05-11T11:58:41.533Z,18.70
2023-05-11T12:01:09.109Z,18.58
2023-05-11T12:03:36.793Z,18.75
2023-05-11T12:06:05.566Z,18.57
2023-05-11T12:08:32.523Z,18.48
2023-05-11T12:11:00.159Z,18.58
2023-05-11T12:13:26.985Z,18.77
2023-05-11T12:16:16.499Z,18.79
2023-05-11T12:18:55.371Z,19.08
2023-05-11T12:21:27.684Z,18.85
2023-05-11T12:23:58.076Z,18.81
2023-05-11T12:26:25.735Z,18.76
2023-05-11T12:28:52.934Z,18.98
2023-05-11T12:31:19.825Z,19.29
2023-05-11T12:33:51.255Z,19.12
2023-05-11T12:36:18.675Z,18.99
2023-05-11T12:38:46.159Z,19.10
2023-05-11T12:41:21.394Z,18.87
2023-05-11T12:43:51.793Z,19.09
2023-05-11T12:46:19.263Z,19.56
2023-05-11T12:48:46.542Z,19.38
2023-05-11T12:51:13.412Z,19.38
2023-05-11T12:53:41.151Z,19.10
2023-05-11T12:56:08.638Z,19.13
2023-05-11T12:58:39.182Z,19.36
2023-05-11T13:01:06.799Z,19.46
2023-05-11T13:03:35.264Z,19.36
2023-05-11T13:06:09.522Z,19.23
2023-05-11T13:08:54.041Z,19.45
2023-05-11T13:11:22.857Z,19.50
2023-05-11T13:13:50.328Z,19.33
2023-05-11T13:16:25.102Z,19.41
2023-05-11T13:19:02.179Z,19.30
2023-05-11T13:21:29.793Z,19.24
2023-05-11T13:23:56.457Z,19.30
2023-05-11T13:26:24.247Z,19.26
2023-05-11T13:29:05.878Z,19.46
2023-05-11T13:31:45.558Z,19.60
2023-05-11T13:34:12.322Z,19.53
2023-05-11T13:36:39.431Z,19.97
2023-05-11T13:39:06.639Z,20.14
2023-05-11T13:41:33.285Z,20.53
2023-05-11T13:44:00.206Z,20.16
2023-05-11T13:46:26.960Z,19.83
2023-05-11T13:48:54.828Z,19.93
2023-05-11T13:51:22.181Z,19.79
2023-05-11T13:53:48.976Z,19.78
2023-05-11T13:56:16.709Z,19.61
2023-05-11T13:58:43.196Z,19.77
2023-05-11T14:01:09.720Z,19.94
2023-05-11T14:03:36.351Z,19.69
2023-05-11T14:06:03.338Z,19.53
2023-05-11T14:08:29.848Z,19.57
2023-05-11T14:10:56.320Z,19.59
2023-05-11T14:13:22.876Z,19.42
2023-05-11T14:15:49.521Z,19.27
2023-05-11T14:18:16.192Z,19.37
2023-05-11T14:20:43.530Z,19.75
2023-05-11T14:23:10.070Z,19.89
2023-05-11T14:25:36.690Z,19.85
2023-05-11T14:28:03.276Z,20.04
2023-05-11T14:30:29.892Z,19.91
2023-05-11T14:32:57.012Z,19.81
2023-05-11T14:35:23.611Z,19.88
2023-05-11T14:37:50.213Z,20.07
2023-05-11T14:40:16.799Z,19.73
2023-05-11T14:42:43.455Z,19.76
2023-05-11T14:45:10.597Z,19.67
2023-05-11T14:47:37.283Z,19.70
2023-05-11T14:50:04.000Z,19.73
2023-05-11T14:52:30.886Z,19.93
2023-05-11T14:54:57.410Z,19.64
2023-05-11T14:57:23.991Z,19.90
2023-05-11T14:59:58.824Z,19.59
2023-05-11T15:02:27.031Z,19.46
2023-05-11T15:04:53.821Z,19.61
2023-05-11T15:07:20.360Z,19.25
2023-05-11T15:09:46.923Z,19.57
2023-05-11T15:12:13.406Z,19.82
2023-05-11T15:14:39.915Z,19.28
2023-05-11T15:17:06.472Z,19.25
2023-05-11T15:19:33.118Z,19.57
2023-05-11T15:21:59.643Z,19.68
2023-05-11T15:24:26.302Z,19.51
2023-05-11T15:26:53.468Z,19.52
2023-05-11T15:29:20.744Z,19.55
2023-05-11T15:31:47.552Z,19.39
2023-05-11T15:34:14.097Z,19.54
2023-05-11T15:36:40.818Z,19.42
2023-05-11T15:41:34.809Z,19.51
2023-05-11T15:44:01.387Z,19.25
2023-05-11T15:48:56.303Z,19.32
2023-05-11T15:51:24.120Z,19.39
2023-05-11T15:53:50.713Z,19.10
2023-05-11T15:56:17.259Z,19.03
2023-05-11T15:58:43.842Z,19.35
2023-05-11T16:01:10.486Z,19.40
2023-05-11T16:03:37.143Z,19.28
2023-05-11T16:06:04.076Z,19.02
2023-05-11T16:08:30.732Z,18.98
2023-05-11T16:10:57.523Z,19.08
2023-05-11T16:13:24.030Z,19.12
2023-05-11T16:15:51.640Z,19.37
2023-05-11T16:18:19.784Z,19.22
2023-05-11T16:20:46.746Z,19.26
2023-05-11T16:23:13.696Z,19.11
2023-05-11T16:25:40.284Z,18.93
2023-05-11T16:28:06.858Z,18.72
2023-05-11T16:30:33.410Z,18.63
2023-05-11T16:32:59.948Z,18.92
2023-05-11T16:35:27.001Z,18.81
2023-05-11T16:37:54.996Z,18.76
2023-05-11T16:40:21.976Z,18.76
2023-05-11T16:42:49.027Z,18.57
2023-05-11T16:45:16.482Z,18.71
2023-05-11T16:47:45.225Z,18.75
2023-05-11T16:50:14.731Z,18.81
2023-05-11T16:52:42.255Z,19.07
2023-05-11T16:55:09.492Z,18.91
2023-05-11T16:57:36.055Z,18.29
2023-05-11T17:00:02.663Z,18.24
2023-05-11T17:02:29.843Z,18.09
2023-05-11T17:04:56.402Z,18.00
2023-05-11T17:07:23.061Z,17.97
2023-05-11T17:09:52.114Z,18.17
2023-05-11T17:12:19.046Z,18.00
2023-05-11T17:14:45.750Z,17.90
2023-05-11T17:17:12.218Z,17.77
2023-05-11T17:19:38.774Z,17.70
2023-05-11T17:22:05.296Z,17.74
2023-05-11T17:24:31.896Z,17.61
2023-05-11T17:26:58.503Z,17.47
2023-05-11T17:29:25.012Z,17.45
2023-05-11T17:31:52.318Z,17.43
2023-05-11T17:34:20.037Z,17.39
2023-05-11T17:36:47.934Z,17.30
2023-05-11T17:39:15.981Z,17.24
2023-05-11T17:41:42.926Z,17.25
2023-05-11T17:44:09.476Z,17.20
2023-05-11T17:46:36.140Z,17.15
2023-05-11T17:49:02.889Z,17.07
2023-05-11T17:51:29.426Z,16.97
2023-05-11T17:53:56.318Z,16.90
2023-05-11T17:56:23.390Z,16.86
2023-05-11T17:58:51.410Z,16.85
2023-05-11T18:01:18.091Z,16.81
2023-05-11T18:03:46.160Z,16.70
2023-05-11T18:06:12.865Z,16.64
2023-05-11T18:08:40.147Z,16.61
2023-05-11T18:11:07.715Z,16.54
2023-05-11T18:13:35.601Z,16.44
2023-05-11T18:16:02.390Z,16.42
2023-05-11T18:18:29.002Z,16.36
2023-05-11T18:20:55.855Z,16.40
2023-05-11T18:23:22.646Z,16.25
2023-05-11T18:25:49.139Z,16.19
2023-05-11T18:28:15.788Z,16.16
2023-05-11T18:30:42.390Z,16.07
2023-05-11T18:33:09.019Z,16.04
2023-05-11T18:35:36.028Z,16.06
2023-05-11T18:38:04.794Z,16.01
2023-05-11T18:40:31.499Z,15.93
2023-05-11T18:42:58.052Z,15.87
2023-05-11T18:45:25.035Z,15.86
2023-05-11T18:47:51.848Z,15.82
2023-05-11T18:50:18.683Z,15.80
2023-05-11T18:52:45.441Z,15.75
2023-05-11T18:55:11.906Z,15.70
2023-05-11T18:57:39.703Z,15.70
2023-05-11T19:00:06.795Z,15.68
2023-05-11T19:02:33.992Z,15.67
2023-05-11T19:05:01.341Z,15.68
2023-05-11T19:07:28.543Z,15.63
2023-05-11T19:09:55.525Z,15.64
2023-05-11T19:12:22.288Z,15.53
2023-05-11T19:14:48.982Z,15.36
2023-05-11T19:17:15.727Z,15.18
2023-05-11T19:19:42.342Z,15.09
2023-05-11T19:22:09.346Z,15.08
2023-05-11T19:24:36.059Z,14.93
2023-05-11T19:27:07.453Z,14.87
2023-05-11T19:29:35.386Z,14.77
2023-05-11T19:32:03.016Z,14.74
2023-05-11T19:34:29.801Z,14.76
2023-05-11T19:36:56.407Z,14.58
2023-05-11T19:39:23.028Z,14.48
2023-05-11T19:41:49.561Z,14.47
2023-05-11T19:44:16.338Z,14.39
2023-05-11T19:46:47.092Z,14.43
2023-05-11T19:49:15.245Z,14.35
2023-05-11T19:51:42.704Z,14.25
2023-05-11T19:54:09.688Z,14.21
2023-05-11T19:56:36.239Z,14.26
2023-05-11T19:59:03.848Z,14.28
2023-05-11T20:01:30.502Z,14.37
2023-05-11T20:03:57.499Z,14.33
2023-05-11T20:06:25.243Z,14.40
2023-05-11T20:08:52.818Z,14.37
2023-05-11T20:11:19.965Z,14.46
2023-05-11T20:13:47.785Z,14.56
2023-05-11T20:16:14.734Z,14.58
2023-05-11T20:18:41.552Z,14.56
2023-05-11T20:21:08.384Z,14.52
2023-05-11T20:23:37.233Z,14.48
2023-05-11T20:26:04.285Z,14.50
2023-05-11T20:28:30.959Z,14.42
2023-05-11T20:30:57.517Z,14.43
2023-05-11T20:35:53.781Z,14.39
2023-05-11T20:38:22.179Z,14.36
2023-05-11T20:40:48.695Z,14.26
2023-05-11T20:43:16.378Z,14.26
2023-05-11T20:45:43.678Z,14.25
2023-05-11T20:48:10.878Z,14.17
2023-05-11T20:50:39.199Z,14.14
2023-05-11T20:53:06.092Z,14.06
2023-05-11T20:55:32.606Z,14.06
2023-05-11T20:57:59.127Z,14.00
2023-05-11T21:00:25.763Z,13.93
2023-05-11T21:02:52.720Z,13.89
2023-05-11T21:05:19.350Z,13.82
2023-05-11T21:07:45.959Z,13.74
2023-05-11T21:10:12.699Z,13.70
2023-05-11T21:12:39.305Z,13.63
2023-05-11T21:15:07.323Z,13.60
2023-05-11T21:17:34.363Z,13.53
2023-05-11T21:20:01.397Z,13.46
2023-05-11T21:22:28.037Z,13.44
2023-05-11T21:24:54.494Z,13.40
2023-05-11T21:27:21.266Z,13.41
2023-05-11T21:29:48.162Z,13.41
2023-05-11T21:32:14.663Z,13.39
2023-05-11T21:34:41.289Z,13.36
2023-05-11T21:37:08.187Z,13.28
2023-05-11T21:39:34.642Z,13.34
2023-05-11T21:42:02.658Z,13.28
2023-05-11T21:44:29.190Z,13.23
2023-05-11T21:46:55.737Z,13.19
2023-05-11T21:49:22.410Z,13.13
2023-05-11T21:51:49.245Z,13.10
2023-05-11T21:54:16.109Z,13.04
2023-05-11T21:56:42.628Z,13.04
2023-05-11T21:59:09.124Z,12.99
2023-05-11T22:01:35.692Z,12.95
2023-05-11T22:04:02.610Z,12.86
2023-05-11T22:06:29.183Z,12.81
2023-05-11T22:08:55.628Z,12.77
2023-05-11T22:11:22.557Z,12.81
2023-05-11T22:13:49.121Z,12.81
2023-05-11T22:16:15.677Z,12.77
2023-05-11T22:18:42.379Z,12.75
2023-05-11T22:21:08.870Z,12.70
2023-05-11T22:23:35.627Z,12.65
2023-05-11T22:26:03.453Z,12.64
2023-05-11T22:28:30.079Z,12.60
2023-05-11T22:31:00.144Z,12.57
2023-05-11T22:33:27.030Z,12.51
2023-05-11T22:35:53.565Z,12.46
2023-05-11T22:38:20.038Z,12.39
2023-05-11T22:40:46.592Z,12.30
2023-05-11T22:43:13.353Z,12.31
2023-05-11T22:45:39.913Z,12.24
2023-05-11T22:48:07.276Z,12.29
2023-05-11T22:50:33.837Z,12.33
2023-05-11T22:53:00.480Z,12.23
2023-05-11T22:55:26.935Z,12.19
2023-05-11T22:57:53.407Z,12.15
2023-05-11T23:00:20.472Z,12.10
2023-05-11T23:02:47.267Z,12.19
2023-05-11T23:05:13.837Z,12.14
2023-05-11T23:07:40.305Z,12.11
2023-05-11T23:10:07.476Z,12.07
2023-05-11T23:12:34.215Z,12.02
2023-05-11T23:15:00.970Z,11.98
2023-05-11T23:17:27.529Z,12.00
2023-05-11T23:19:54.221Z,11.98
2023-05-11T23:22:20.731Z,12.04
2023-05-11T23:24:47.257Z,12.02
2023-05-11T23:27:14.114Z,11.99
2023-05-11T23:29:40.660Z,11.98
2023-05-11T23:32:07.265Z,11.93
2023-05-11T23:34:33.715Z,11.92
2023-05-11T23:37:00.384Z,11.93
2023-05-11T23:39:26.898Z,11.93
2023-05-11T23:41:53.381Z,11.90
2023-05-11T23:44:20.220Z,11.88
2023-05-11T23:46:46.933Z,11.83
2023-05-11T23:49:13.411Z,11.82
2023-05-11T23:51:39.872Z,11.79
2023-05-11T23:54:06.870Z,11.70
2023-05-11T23:56:33.591Z,11.67
2023-05-11T23:59:00.115Z,11.66
